ADDS METAR Data INFO
IDs: Format: Raw Decoded Include TAF

Data at: 0643 UTC 23 Feb 2018

KTCS 230553Z AUTO 31005KT 10SM CLR 04/M11 A3012 RMK AO2 SLP171 T00441106 10133 20044 52010
KTCS 230453Z AUTO 22010KT 10SM CLR 07/M11 A3011 RMK AO2 SLP165 T00721111
KTCS 230353Z AUTO 21009KT 10SM CLR 07/M11 A3009 RMK AO2 SLP161 T00721106
KTCS 230253Z AUTO 20011KT 10SM CLR 08/M11 A3008 RMK AO2 SLP160 T00781106 53019
KTCS 230153Z AUTO 20005KT 10SM CLR 09/M12 A3006 RMK AO2 SLP152 T00941122
KTCS 230053Z AUTO 26010G19KT 10SM CLR 12/M18 A3003 RMK AO2 SLP138 T01171183
KTCS 222353Z AUTO 26015KT 10SM CLR 13/M17 A3002 RMK AO2 SLP128 T01331172 10144 20111 53001
KTCS 222253Z AUTO 26016G24KT 10SM CLR 14/M16 A3001 RMK AO2 SLP124 T01391161
KTCS 222153Z AUTO 26013G21KT 10SM CLR 14/M15 A3001 RMK AO2 PK WND 23026/2128 SLP122 T01391150
KTCS 222053Z AUTO 25016G21KT 10SM CLR 14/M16 A3001 RMK AO2 PK WND 21026/2008 SLP123 T01441156 58018
KTCS 221953Z AUTO 24013G19KT 10SM CLR 13/M13 A3004 RMK AO2 SLP133 T01331133
KTCS 221853Z AUTO 24012G20KT 10SM CLR 12/M12 A3007 RMK AO2 WSHFT 1813 SLP143 T01221122
KTCS 221833Z AUTO 27013G19KT 10SM 12/M12 A3007 RMK AO2 WSHFT 1813 T01221117 $
KTCS 221753Z AUTO 22009KT 10SM 11/M11 A3008 RMK AO2 SLP148 T01061111 10111 20050 50006 $
KTCS 221653Z AUTO 21012KT 10SM 09/M08 A3008 RMK AO2 SLP152 T00941078
KTCS 221553Z AUTO 21010KT 10SM 08/M04 A3008 RMK AO2 SLP152 T00781044
KTCS 221453Z AUTO 21010KT 10SM 06/M03 A3005 RMK AO2 SLP144 T00611033 53013
KTCS 221353Z AUTO 20010KT 10SM 05/M03 A3004 RMK AO2 SLP138 T00501028 $
KTCS 221253Z AUTO 19010KT 10SM 05/M03 A3002 RMK AO2 SLP133 T00501028 $
KTCS 221153Z AUTO 19010KT 10SM 06/M03 A3001 RMK AO2 SLP124 T00611033 10089 20061 53003 $
KTCS 221053Z AUTO 22009KT 10SM 07/M03 A3000 RMK AO2 SLP121 T00671033 $
KTCS 220953Z AUTO 20009KT 10SM 07/M03 A3000 RMK AO2 SLP117 T00721033 $
KTCS 220853Z AUTO 19012KT 10SM 08/M03 A3000 RMK AO2 SLP119 T00781028 58001 $
KTCS 220753Z AUTO 20009KT 10SM 08/M04 A3000 RMK AO2 SLP122 T00831039 $
KTCS 220653Z AUTO 20010KT 10SM 09/M04 A3001 RMK AO2 SLP127 T00891044 401440000 $
KTCS 220553Z AUTO 19007KT 10SM 09/M05 A3000 RMK AO2 SLP125 T00891050 10139 20089 51003 $
KTCS 220453Z AUTO 20007KT 10SM 09/M04 A3000 RMK AO2 SLP129 T00891044 $
KTCS 220353Z AUTO 19007KT 10SM 09/M03 A3000 RMK AO2 SLP131 T00941028 $
KTCS 220011Z AUTO 19012KT 10SM 13/M03 A2998 RMK AO2 T01331033 $
KTCS 220003Z AUTO 18013KT 10SM BKN026 BKN038 OVC046 13/M03 A2998 RMK AO2 T01331028
KTCS 212353Z AUTO 18013G22KT 10SM SCT022 BKN030 OVC042 14/M03 A2998 RMK AO2 SLP121 60000 T01391028 10144 20089 58002
KTCS 212253Z AUTO 20015KT 10SM FEW024 SCT031 BKN038 13/M03 A2998 RMK AO2 PK WND 21028/2231 SLP122 T01331028
KTCS 212153Z AUTO 21015G24KT 10SM FEW010 SCT026 BKN036 14/M02 A2999 RMK AO2 SLP122 T01441022
KTCS 212149Z AUTO 21017G24KT 10SM FEW010 SCT019 BKN029 14/M02 A2999 RMK AO2 TSNO
KTCS 212138Z AUTO 20014G20KT 10SM FEW007 BKN012 OVC041 13/M01 A2999 RMK AO2 T01331006 TSNO
KTCS 212124Z AUTO 18015KT 10SM FEW007 BKN018 OVC039 13/M01 A3000 RMK AO2 T01281006
KTCS 212113Z AUTO 19009G22KT 10SM FEW007 BKN030 OVC038 12/M01 A3000 RMK AO2 T01221006
KTCS 212102Z AUTO 20013KT 10SM SCT007 BKN014 OVC038 13/M01 A3000 RMK AO2 T01281006
KTCS 212053Z AUTO 18015KT 10SM FEW004 BKN016 OVC036 13/00 A3001 RMK AO2 PK WND 22028/2012 RAE16 SLP130 P0000 60000 T01280000 58028
KTCS 212027Z AUTO 19017G25KT 10SM FEW009 SCT013 BKN020 13/M02 A3002 RMK AO2 PK WND 22028/2012 RAE16 P0000 T01281017 TSNO